Portada
METAR-TAF:

METAR-TAF

Aeropuertos :

Aeropuerto Internacional Atatürk

Estambul Atatürk, Turquía

latitud: 40-58N, longitud: 028-49E, altitud: 48 m

Observación

El informe se hizo hace 29 minutos, a las 13:50 UTC
Viento 4 kt del sur-suroeste, variando entre sur y oeste
Temperatura 21°C
Humedad 46%
Presión 1025 hPa
Visibilidad 10 km o más
sin nubes por debajo de 1500 m y sin presencia de cumulonimbus.

METAR: LTBA 241350Z 21004KT 180V260 CAVOK 21/09 Q1025 NOSIG RMK RWY17L 18003KT 140V220 RWY05 21004KT RWY23 VRB02KT

Hora: 17:19 (14:19 UTC)

Pronóstico

El informe se hizo hace 3 horas y 39 minutos, a las 10:40 UTC
Pronóstico válido del 24 a las 12 UTC al 25 a las 18 UTC
Viento 8 kt del sur-suroeste
Visibilidad 10 km o más
sin nubes por debajo de 1500 m y sin presencia de cumulonimbus.
Evolucionando progresivamente
del 24 a las 14 UTC al 24 a las 18 UTC
Viento 10 kt del norte-noreste

TAF: LTBA 241040Z 2412/2518 20008KT CAVOK BECMG 2414/2418 03010KT

Observaciones y pronósticos meteorológicos de más de 4000 aeropuertos (mensajes METAR y TAF).

Los puntos amarillos y rojos representan las estaciones disponibles.

Ponga el ratón en el punto deseado para ver el nombre de la estación.

Haga clic para ver las observaciones y los pronósticos meteorológicos.

Para cambiar el mapa : haga clic en los botones verdes con una cruz de color negro para hacer un zoom, en el botón verde con un guión para alejar o en las flechas verdes para mapas adyacentes.


METAR-TAF: